createdAt,value
2018-05-18T00:01:57.605Z,99.90
2018-05-18T00:04:25.899Z,99.90
2018-05-18T00:06:53.469Z,99.90
2018-05-18T00:09:21.021Z,99.90
2018-05-18T00:11:48.544Z,99.90
2018-05-18T00:14:16.148Z,99.90
2018-05-18T00:16:43.716Z,99.90
2018-05-18T00:19:11.239Z,99.90
2018-05-18T00:21:39.641Z,99.90
2018-05-18T00:24:07.159Z,99.90
2018-05-18T00:26:34.679Z,99.90
2018-05-18T00:29:02.209Z,99.90
2018-05-18T00:31:29.727Z,99.90
2018-05-18T00:33:58.751Z,99.90
2018-05-18T00:36:27.050Z,99.90
2018-05-18T00:38:54.560Z,99.90
2018-05-18T00:41:22.064Z,99.90
2018-05-18T00:43:49.626Z,99.90
2018-05-18T00:46:17.168Z,99.90
2018-05-18T00:48:45.437Z,99.90
2018-05-18T00:51:13.845Z,99.90
2018-05-18T00:53:41.398Z,99.90
2018-05-18T00:56:08.912Z,99.90
2018-05-18T00:58:36.430Z,99.90
2018-05-18T01:01:03.960Z,99.90
2018-05-18T01:03:32.256Z,99.90
2018-05-18T01:05:59.828Z,99.90
2018-05-18T01:08:27.390Z,99.90
2018-05-18T01:10:54.945Z,99.90
2018-05-18T01:13:22.480Z,99.90
2018-05-18T01:15:50.831Z,99.90
2018-05-18T01:18:18.302Z,99.90
2018-05-18T01:20:45.896Z,99.90
2018-05-18T01:23:13.414Z,99.90
2018-05-18T01:25:40.931Z,99.90
2018-05-18T01:28:08.450Z,99.90
2018-05-18T01:30:36.730Z,99.90
2018-05-18T01:33:05.028Z,99.90
2018-05-18T01:35:32.550Z,99.90
2018-05-18T01:38:01.579Z,99.90
2018-05-18T01:40:29.096Z,99.90
2018-05-18T01:42:56.622Z,99.90
2018-05-18T01:45:24.142Z,99.90
2018-05-18T01:47:52.435Z,99.90
2018-05-18T01:50:19.960Z,99.90
2018-05-18T01:52:47.485Z,99.90
2018-05-18T01:55:14.996Z,99.90
2018-05-18T01:57:43.409Z,99.90
2018-05-18T02:00:10.912Z,99.90
2018-05-18T02:02:38.425Z,99.90
2018-05-18T02:05:05.983Z,99.90
2018-05-18T02:07:33.511Z,99.90
2018-05-18T02:10:01.822Z,99.90
2018-05-18T02:12:29.378Z,99.90
2018-05-18T02:14:56.887Z,99.90
2018-05-18T02:17:24.412Z,99.90
2018-05-18T02:19:51.946Z,99.90
2018-05-18T02:22:19.467Z,99.90
2018-05-18T02:24:46.985Z,99.90
2018-05-18T02:27:14.631Z,99.90
2018-05-18T02:29:42.147Z,99.90
2018-05-18T02:32:09.667Z,99.90
2018-05-18T02:34:37.204Z,99.90
2018-05-18T02:37:04.716Z,99.90
2018-05-18T02:39:32.338Z,99.90
2018-05-18T02:41:59.867Z,99.90
2018-05-18T02:44:28.173Z,99.90
2018-05-18T02:46:55.721Z,99.90
2018-05-18T02:49:23.281Z,99.90
2018-05-18T02:51:50.795Z,99.90
2018-05-18T02:54:18.310Z,99.90
2018-05-18T02:56:45.862Z,99.90
2018-05-18T02:59:13.428Z,99.90
2018-05-18T03:01:40.943Z,99.90
2018-05-18T03:04:08.971Z,99.90
2018-05-18T03:06:37.313Z,99.90
2018-05-18T03:09:05.601Z,99.90
2018-05-18T03:11:33.175Z,99.90
2018-05-18T03:14:00.691Z,99.90
2018-05-18T03:16:28.197Z,99.90
2018-05-18T03:18:55.731Z,99.90
2018-05-18T03:21:24.013Z,99.90
2018-05-18T03:23:51.535Z,99.90
2018-05-18T03:26:19.060Z,99.90
2018-05-18T03:28:46.571Z,99.90
2018-05-18T03:31:14.863Z,99.90
2018-05-18T03:33:43.158Z,99.90
2018-05-18T03:36:10.666Z,99.90
2018-05-18T03:38:38.186Z,99.90
2018-05-18T03:41:05.816Z,99.90
2018-05-18T03:43:34.104Z,99.90
2018-05-18T03:46:01.627Z,99.90
2018-05-18T03:48:29.242Z,99.90
2018-05-18T03:50:56.796Z,99.90
2018-05-18T03:53:24.310Z,99.90
2018-05-18T03:55:51.840Z,99.90
2018-05-18T03:58:19.383Z,99.90
2018-05-18T04:00:46.902Z,99.90
2018-05-18T04:03:27.034Z,99.90
2018-05-18T04:06:06.532Z,99.90
2018-05-18T04:08:40.024Z,99.90
2018-05-18T04:11:07.540Z,99.90
2018-05-18T04:13:35.155Z,99.90
2018-05-18T04:16:02.693Z,99.90
2018-05-18T04:18:31.008Z,99.90
2018-05-18T04:20:58.526Z,99.90
2018-05-18T04:23:26.961Z,99.90
2018-05-18T04:25:54.480Z,99.90
2018-05-18T04:28:22.003Z,99.90
2018-05-18T04:30:49.614Z,99.90
2018-05-18T04:33:17.161Z,99.90
2018-05-18T04:35:44.667Z,99.90
2018-05-18T04:38:12.194Z,99.90
2018-05-18T04:40:39.708Z,99.90
2018-05-18T04:43:07.322Z,99.90
2018-05-18T04:45:34.866Z,99.90
2018-05-18T04:48:02.378Z,99.90
2018-05-18T04:50:29.897Z,99.90
2018-05-18T04:52:57.442Z,99.90
2018-05-18T04:55:25.004Z,99.90
2018-05-18T04:57:52.572Z,99.90
2018-05-18T05:00:20.128Z,99.90
2018-05-18T05:02:47.652Z,99.90
2018-05-18T05:05:15.959Z,99.90
2018-05-18T05:07:43.487Z,99.90
2018-05-18T05:10:11.016Z,99.90
2018-05-18T05:12:38.546Z,99.90
2018-05-18T05:15:06.081Z,99.90
2018-05-18T05:17:34.468Z,99.90
2018-05-18T05:20:02.014Z,99.90
2018-05-18T05:22:30.297Z,99.90
2018-05-18T05:24:58.569Z,99.90
2018-05-18T05:27:26.844Z,99.90
2018-05-18T05:29:55.156Z,99.90
2018-05-18T05:32:22.669Z,99.90
2018-05-18T05:34:50.197Z,99.90
2018-05-18T05:37:17.853Z,99.90
2018-05-18T05:39:45.374Z,99.90
2018-05-18T05:42:13.665Z,99.90
2018-05-18T05:44:41.203Z,99.90
2018-05-18T05:47:09.611Z,99.90
2018-05-18T05:49:37.131Z,99.90
2018-05-18T05:52:04.658Z,99.90
2018-05-18T05:54:32.189Z,99.90
2018-05-18T05:56:59.712Z,99.90
2018-05-18T05:59:28.004Z,99.90
2018-05-18T06:01:56.297Z,99.90
2018-05-18T06:04:23.819Z,99.90
2018-05-18T06:06:51.345Z,99.90
2018-05-18T06:09:18.855Z,99.90
2018-05-18T06:11:47.154Z,99.90
2018-05-18T06:14:14.672Z,99.90
2018-05-18T06:16:42.181Z,99.90
2018-05-18T06:19:09.737Z,99.90
2018-05-18T06:21:37.269Z,99.90
2018-05-18T06:24:05.549Z,99.90
2018-05-18T06:26:33.834Z,99.90
2018-05-18T06:29:02.334Z,99.90
2018-05-18T06:31:29.858Z,99.90
2018-05-18T06:33:58.174Z,99.90
2018-05-18T06:36:25.730Z,99.90
2018-05-18T06:38:53.252Z,99.90
2018-05-18T06:41:21.596Z,99.90
2018-05-18T06:43:49.138Z,99.90
2018-05-18T06:46:16.655Z,99.90
2018-05-18T06:48:46.717Z,99.90
2018-05-18T06:51:14.792Z,99.90
2018-05-18T06:53:42.310Z,99.90
2018-05-18T06:56:10.598Z,99.90
2018-05-18T06:58:38.243Z,99.90
2018-05-18T07:01:05.721Z,99.90
2018-05-18T07:03:33.245Z,99.90
2018-05-18T07:06:00.784Z,99.90
2018-05-18T07:08:28.317Z,99.90
2018-05-18T07:10:55.855Z,99.90
2018-05-18T07:13:23.383Z,99.90
2018-05-18T07:15:51.036Z,99.90
2018-05-18T07:18:19.336Z,99.90
2018-05-18T07:20:47.636Z,99.90
2018-05-18T07:23:15.168Z,99.90
2018-05-18T07:25:42.682Z,99.90
2018-05-18T07:28:10.212Z,99.90
2018-05-18T07:30:38.507Z,99.90
2018-05-18T07:33:06.030Z,99.90
2018-05-18T07:35:34.344Z,99.90
2018-05-18T07:38:01.888Z,99.90
2018-05-18T07:40:29.409Z,99.90
2018-05-18T07:42:56.926Z,99.90
2018-05-18T07:45:24.454Z,99.90
2018-05-18T07:47:52.856Z,99.90
2018-05-18T07:50:20.402Z,99.90
2018-05-18T07:52:48.728Z,99.90
2018-05-18T07:55:16.257Z,99.90
2018-05-18T07:57:43.790Z,99.90
2018-05-18T08:00:12.064Z,99.90
2018-05-18T08:02:40.351Z,99.90
2018-05-18T08:05:08.649Z,99.90
2018-05-18T08:07:36.171Z,99.90
2018-05-18T08:10:04.467Z,99.90
2018-05-18T08:12:32.769Z,99.90
2018-05-18T08:15:00.322Z,99.90
2018-05-18T08:17:27.858Z,99.90
2018-05-18T08:19:56.265Z,99.90
2018-05-18T08:22:23.779Z,99.90
2018-05-18T08:24:51.295Z,99.90
2018-05-18T08:27:23.770Z,99.90
2018-05-18T08:29:51.291Z,99.90
2018-05-18T08:32:19.584Z,99.90
2018-05-18T08:34:47.152Z,99.90
2018-05-18T08:37:14.901Z,99.90
2018-05-18T08:39:42.431Z,99.90
2018-05-18T08:42:09.969Z,99.90
2018-05-18T08:44:37.487Z,99.90
2018-05-18T08:47:05.001Z,99.90
2018-05-18T08:49:32.542Z,99.90
2018-05-18T08:52:00.061Z,99.90
2018-05-18T08:54:27.633Z,99.90
2018-05-18T08:56:55.176Z,99.90
2018-05-18T08:59:23.467Z,99.90
2018-05-18T09:01:50.997Z,99.90
2018-05-18T09:04:19.317Z,99.90
2018-05-18T09:06:46.871Z,99.90
2018-05-18T09:09:14.481Z,99.90
2018-05-18T09:11:42.061Z,99.90
2018-05-18T09:14:10.357Z,99.90
2018-05-18T09:16:37.893Z,99.90
2018-05-18T09:19:06.189Z,99.90
2018-05-18T09:21:34.490Z,99.90
2018-05-18T09:24:02.156Z,99.90
2018-05-18T09:26:30.682Z,99.90
2018-05-18T09:28:58.185Z,99.90
2018-05-18T09:31:25.726Z,99.90
2018-05-18T09:33:54.136Z,99.90
2018-05-18T09:36:21.669Z,99.90
2018-05-18T09:38:49.255Z,99.90
2018-05-18T09:41:16.806Z,99.90
2018-05-18T09:43:44.358Z,99.90
2018-05-18T09:46:11.889Z,99.90
2018-05-18T09:48:40.197Z,99.90
2018-05-18T09:51:07.718Z,99.90
2018-05-18T09:53:35.250Z,99.90
2018-05-18T09:56:02.876Z,99.90
2018-05-18T09:58:30.409Z,99.90
2018-05-18T10:00:58.724Z,99.90
2018-05-18T10:03:26.268Z,99.90
2018-05-18T10:05:53.797Z,99.90
2018-05-18T10:08:21.408Z,99.90
2018-05-18T10:10:48.959Z,99.90
2018-05-18T10:13:16.482Z,99.90
2018-05-18T10:15:44.114Z,99.90
2018-05-18T10:18:11.657Z,99.90
2018-05-18T10:20:39.178Z,99.90
2018-05-18T10:23:07.467Z,99.90
2018-05-18T10:25:34.999Z,99.90
2018-05-18T10:28:02.519Z,99.90
2018-05-18T10:30:30.064Z,99.90
2018-05-18T10:32:57.596Z,99.90
2018-05-18T10:35:25.897Z,99.90
2018-05-18T10:37:53.427Z,99.90
2018-05-18T10:40:21.733Z,99.90
2018-05-18T10:42:49.271Z,99.90
2018-05-18T10:45:17.660Z,99.90
2018-05-18T10:47:45.194Z,99.90
2018-05-18T10:50:12.745Z,99.90
2018-05-18T10:52:41.061Z,99.90
2018-05-18T10:55:08.641Z,99.90
2018-05-18T10:57:36.207Z,99.90
2018-05-18T11:00:03.762Z,99.90
2018-05-18T11:02:31.292Z,99.90
2018-05-18T11:04:59.581Z,99.90
2018-05-18T11:07:27.107Z,99.90
2018-05-18T11:09:54.652Z,99.90
2018-05-18T11:12:22.193Z,99.90
2018-05-18T11:14:49.714Z,99.90
2018-05-18T11:17:17.240Z,99.90
2018-05-18T11:19:44.753Z,99.90
2018-05-18T11:22:12.313Z,99.90
2018-05-18T11:24:39.843Z,99.90
2018-05-18T11:27:08.138Z,99.90
2018-05-18T11:29:35.704Z,99.90
2018-05-18T11:32:03.236Z,99.90
2018-05-18T11:34:31.532Z,99.90
2018-05-18T11:36:59.064Z,99.90
2018-05-18T11:39:27.370Z,99.90
2018-05-18T11:41:54.884Z,99.90
2018-05-18T11:44:22.505Z,99.90
2018-05-18T11:46:50.070Z,99.90
2018-05-18T11:49:17.593Z,99.90
2018-05-18T11:51:45.878Z,99.90
2018-05-18T11:54:14.284Z,99.90
2018-05-18T11:56:41.816Z,99.90
2018-05-18T11:59:10.114Z,99.90
2018-05-18T12:01:37.657Z,99.90
2018-05-18T12:04:06.051Z,99.90
2018-05-18T12:06:33.565Z,99.90
2018-05-18T12:09:02.609Z,99.90
2018-05-18T12:11:30.167Z,99.90
2018-05-18T12:13:57.727Z,99.90
2018-05-18T12:16:26.033Z,99.90
2018-05-18T12:18:53.567Z,99.90
2018-05-18T12:21:21.093Z,99.30
2018-05-18T12:23:49.391Z,99.90
2018-05-18T12:26:17.056Z,99.90
2018-05-18T12:28:44.521Z,99.90
2018-05-18T12:31:12.077Z,99.30
2018-05-18T12:33:39.617Z,99.90
2018-05-18T12:36:07.925Z,99.90
2018-05-18T12:38:35.459Z,99.90
2018-05-18T12:41:03.771Z,98.30
2018-05-18T12:43:31.307Z,98.30
2018-05-18T12:45:58.844Z,99.60
2018-05-18T12:48:27.145Z,98.00
2018-05-18T12:50:54.673Z,98.00
2018-05-18T12:53:22.224Z,97.00
2018-05-18T12:55:49.762Z,98.00
2018-05-18T12:58:17.304Z,98.30
2018-05-18T13:00:44.829Z,98.80
2018-05-18T13:03:13.129Z,97.80
2018-05-18T13:05:40.642Z,97.90
2018-05-18T13:08:08.218Z,98.10
2018-05-18T13:10:35.728Z,99.30
2018-05-18T13:13:03.290Z,99.00
2018-05-18T13:15:30.870Z,99.20
2018-05-18T13:17:58.390Z,97.60
2018-05-18T13:20:25.920Z,97.20
2018-05-18T13:22:54.226Z,96.50
2018-05-18T13:25:21.797Z,96.50
2018-05-18T13:27:49.322Z,97.10
2018-05-18T13:30:17.608Z,95.90
2018-05-18T13:32:45.928Z,97.20
2018-05-18T13:35:13.456Z,97.20
2018-05-18T13:37:41.046Z,97.00
2018-05-18T13:40:08.578Z,96.10
2018-05-18T13:42:36.868Z,95.30
2018-05-18T13:45:04.490Z,95.20
2018-05-18T13:47:31.934Z,95.20
2018-05-18T13:49:59.469Z,94.40
2018-05-18T13:52:27.013Z,93.30
2018-05-18T13:54:54.542Z,94.70
2018-05-18T13:57:22.848Z,95.70
2018-05-18T13:59:50.414Z,95.60
2018-05-18T14:02:17.942Z,97.30
2018-05-18T14:04:45.469Z,98.10
2018-05-18T14:07:13.821Z,98.40
2018-05-18T14:09:41.380Z,98.30
2018-05-18T14:12:08.897Z,97.00
2018-05-18T14:14:37.304Z,95.60
2018-05-18T14:17:04.829Z,95.60
2018-05-18T14:19:33.128Z,94.80
2018-05-18T14:22:00.703Z,94.80
2018-05-18T14:24:28.278Z,95.60
2018-05-18T14:26:55.805Z,95.60
2018-05-18T14:29:23.367Z,94.20
2018-05-18T14:31:50.955Z,94.00
2018-05-18T14:34:19.215Z,94.80
2018-05-18T14:36:46.742Z,94.80
2018-05-18T14:39:15.031Z,94.70
2018-05-18T14:41:44.150Z,94.40
2018-05-18T14:44:11.666Z,94.40
2018-05-18T14:46:39.197Z,93.10
2018-05-18T14:49:06.737Z,95.40
2018-05-18T14:51:34.285Z,94.00
2018-05-18T14:54:01.928Z,94.90
2018-05-18T14:56:29.412Z,95.10
2018-05-18T14:58:56.943Z,94.50
2018-05-18T15:01:25.263Z,94.30
2018-05-18T15:03:52.794Z,94.30
2018-05-18T15:06:20.360Z,95.90
2018-05-18T15:08:47.886Z,95.90
2018-05-18T15:11:16.208Z,95.60
2018-05-18T15:13:43.740Z,95.60
2018-05-18T15:16:12.046Z,96.80
2018-05-18T15:18:39.558Z,96.80
2018-05-18T15:21:07.089Z,97.10
2018-05-18T15:23:34.608Z,96.50
2018-05-18T15:26:02.912Z,98.80
2018-05-18T15:28:30.466Z,98.80
2018-05-18T15:30:58.006Z,97.30
2018-05-18T15:33:26.323Z,97.60
2018-05-18T15:35:53.863Z,97.60
2018-05-18T15:38:21.379Z,98.50
2018-05-18T15:40:48.897Z,97.90
2018-05-18T15:43:16.418Z,97.90
2018-05-18T15:45:45.339Z,98.10
2018-05-18T15:48:12.883Z,98.40
2018-05-18T15:50:40.412Z,98.60
2018-05-18T15:53:08.716Z,99.90
2018-05-18T15:55:36.228Z,99.90
2018-05-18T15:58:03.852Z,99.20
2018-05-18T16:00:31.482Z,99.90
2018-05-18T16:02:58.950Z,99.90
2018-05-18T16:05:27.358Z,99.90
2018-05-18T16:07:54.891Z,99.90
2018-05-18T16:10:23.288Z,99.90
2018-05-18T16:12:50.909Z,99.90
2018-05-18T16:15:18.400Z,99.90
2018-05-18T16:17:45.986Z,99.90
2018-05-18T16:20:13.549Z,99.90
2018-05-18T16:22:41.072Z,99.90
2018-05-18T16:25:09.370Z,99.90
2018-05-18T16:27:36.910Z,99.90
2018-05-18T16:30:05.312Z,99.90
2018-05-18T16:32:32.978Z,99.90
2018-05-18T16:35:00.508Z,99.90
2018-05-18T16:37:28.806Z,99.90
2018-05-18T16:39:56.347Z,99.90
2018-05-18T16:42:24.764Z,99.90
2018-05-18T16:44:52.304Z,99.90
2018-05-18T16:47:19.834Z,99.90
2018-05-18T16:49:48.132Z,99.90
2018-05-18T16:52:16.424Z,99.90
2018-05-18T16:54:43.947Z,99.90
2018-05-18T16:57:12.366Z,99.90
2018-05-18T16:59:39.884Z,99.90
2018-05-18T17:02:08.215Z,99.90
2018-05-18T17:04:35.770Z,99.90
2018-05-18T17:07:03.311Z,99.90
2018-05-18T17:09:30.966Z,99.90
2018-05-18T17:11:59.275Z,99.90
2018-05-18T17:14:26.826Z,99.90
2018-05-18T17:16:54.365Z,99.90
2018-05-18T17:19:22.647Z,99.90
2018-05-18T17:21:50.220Z,99.90
2018-05-18T17:24:17.787Z,99.90
2018-05-18T17:26:45.344Z,99.90
2018-05-18T17:29:12.901Z,99.90
2018-05-18T17:31:40.441Z,99.90
2018-05-18T17:34:08.869Z,99.90
2018-05-18T17:36:36.409Z,99.90
2018-05-18T17:39:03.938Z,99.90
2018-05-18T17:41:32.452Z,99.90
2018-05-18T17:43:59.981Z,99.90
2018-05-18T17:46:28.376Z,99.90
2018-05-18T17:48:56.147Z,99.90
2018-05-18T17:51:23.595Z,99.90
2018-05-18T17:53:51.133Z,99.90
2018-05-18T17:56:19.455Z,99.90
2018-05-18T17:58:46.965Z,99.90
2018-05-18T18:01:14.513Z,99.90
2018-05-18T18:03:44.344Z,99.90
2018-05-18T18:06:12.641Z,99.90
2018-05-18T18:08:40.167Z,99.90
2018-05-18T18:11:07.758Z,99.90
2018-05-18T18:13:36.079Z,99.90
2018-05-18T18:16:03.606Z,99.90
2018-05-18T18:18:31.144Z,99.90
2018-05-18T18:20:59.422Z,99.90
2018-05-18T18:23:27.733Z,99.90
2018-05-18T18:25:55.277Z,99.90
2018-05-18T18:28:22.859Z,99.90
2018-05-18T18:30:50.403Z,99.90
2018-05-18T18:33:17.955Z,99.90
2018-05-18T18:35:46.342Z,99.90
2018-05-18T18:38:13.855Z,99.90
2018-05-18T18:40:41.466Z,99.90
2018-05-18T18:43:08.985Z,99.90
2018-05-18T18:45:36.508Z,99.90
2018-05-18T18:48:04.048Z,99.90
2018-05-18T18:50:31.616Z,99.90
2018-05-18T18:52:59.144Z,99.90
2018-05-18T18:55:27.440Z,99.90
2018-05-18T18:57:55.194Z,99.90
2018-05-18T19:00:22.739Z,99.90
2018-05-18T19:02:51.042Z,99.90
2018-05-18T19:05:18.718Z,99.90
2018-05-18T19:07:46.248Z,99.90
2018-05-18T19:10:14.558Z,99.90
2018-05-18T19:12:42.113Z,99.90
2018-05-18T19:15:09.676Z,99.90
2018-05-18T19:17:37.206Z,99.90
2018-05-18T19:20:05.618Z,99.90
2018-05-18T19:22:33.159Z,99.90
2018-05-18T19:25:00.691Z,99.90
2018-05-18T19:27:28.297Z,99.90
2018-05-18T19:29:55.830Z,99.90
2018-05-18T19:32:24.141Z,99.90
2018-05-18T19:34:51.675Z,99.90
2018-05-18T19:37:19.953Z,99.90
2018-05-18T19:39:47.498Z,99.90
2018-05-18T19:42:15.812Z,99.90
2018-05-18T19:44:43.334Z,99.90
2018-05-18T19:47:11.643Z,99.90
2018-05-18T19:49:39.167Z,99.90
2018-05-18T19:52:07.464Z,99.90
2018-05-18T19:54:34.993Z,99.90
2018-05-18T19:57:02.534Z,99.90
2018-05-18T19:59:30.069Z,99.90
2018-05-18T20:01:57.603Z,99.90
2018-05-18T20:04:25.997Z,99.90
2018-05-18T20:06:53.524Z,99.90
2018-05-18T20:09:21.842Z,99.90
2018-05-18T20:11:49.353Z,99.90
2018-05-18T20:14:16.962Z,99.90
2018-05-18T20:16:44.522Z,99.90
2018-05-18T20:19:12.078Z,99.90
2018-05-18T20:21:39.631Z,99.90
2018-05-18T20:24:07.157Z,99.90
2018-05-18T20:26:36.271Z,99.90
2018-05-18T20:29:04.554Z,99.90
2018-05-18T20:31:32.853Z,99.90
2018-05-18T20:34:00.516Z,99.90
2018-05-18T20:36:28.083Z,99.90
2018-05-18T20:38:55.617Z,99.90
2018-05-18T20:41:23.734Z,99.90
2018-05-18T20:43:51.265Z,99.90
2018-05-18T20:46:18.801Z,99.90
2018-05-18T20:48:47.100Z,99.90
2018-05-18T20:51:14.619Z,99.90
2018-05-18T20:53:42.919Z,99.90
2018-05-18T20:56:11.216Z,99.90
2018-05-18T20:58:38.793Z,99.90
2018-05-18T21:01:06.321Z,99.90
2018-05-18T21:03:33.866Z,99.90
2018-05-18T21:06:02.168Z,99.90
2018-05-18T21:08:29.738Z,99.90
2018-05-18T21:10:57.260Z,99.90
2018-05-18T21:13:25.571Z,99.90
2018-05-18T21:15:53.114Z,99.90
2018-05-18T21:18:21.403Z,99.90
2018-05-18T21:20:48.921Z,99.90
2018-05-18T21:23:16.447Z,99.90
2018-05-18T21:25:43.963Z,99.90
2018-05-18T21:28:12.239Z,99.90
2018-05-18T21:30:40.535Z,99.90
2018-05-18T21:33:08.051Z,99.90
2018-05-18T21:35:35.571Z,99.90
2018-05-18T21:38:03.098Z,99.90
2018-05-18T21:40:31.389Z,99.90
2018-05-18T21:42:58.909Z,99.90
2018-05-18T21:45:26.445Z,99.90
2018-05-18T21:47:54.071Z,99.90
2018-05-18T21:50:21.596Z,99.90
2018-05-18T21:52:49.192Z,99.90
2018-05-18T21:55:16.706Z,99.90
2018-05-18T21:57:44.227Z,99.90
2018-05-18T22:00:11.779Z,99.90
2018-05-18T22:02:39.335Z,99.90
2018-05-18T22:05:06.898Z,99.90
2018-05-18T22:07:34.432Z,99.90
2018-05-18T22:10:02.724Z,99.90
2018-05-18T22:12:30.244Z,99.90
2018-05-18T22:14:57.807Z,99.90
2018-05-18T22:17:25.328Z,99.90
2018-05-18T22:19:52.844Z,99.90
2018-05-18T22:22:21.140Z,99.90
2018-05-18T22:24:48.670Z,99.90
2018-05-18T22:27:16.184Z,99.90
2018-05-18T22:29:43.727Z,99.90
2018-05-18T22:32:11.250Z,99.90
2018-05-18T22:34:39.574Z,99.90
2018-05-18T22:37:07.110Z,99.90
2018-05-18T22:39:34.622Z,99.90
2018-05-18T22:42:02.147Z,99.90
2018-05-18T22:44:29.674Z,99.90
2018-05-18T22:46:57.984Z,99.90
2018-05-18T22:49:25.546Z,99.90
2018-05-18T22:51:53.096Z,99.90
2018-05-18T22:54:20.612Z,99.90
2018-05-18T22:56:48.127Z,99.90
2018-05-18T22:59:15.647Z,99.90
2018-05-18T23:01:43.925Z,99.90
2018-05-18T23:04:12.203Z,99.90
2018-05-18T23:06:40.484Z,99.90
2018-05-18T23:09:08.757Z,99.90
2018-05-18T23:11:37.040Z,99.90
2018-05-18T23:14:05.330Z,99.90
2018-05-18T23:16:32.841Z,99.90
2018-05-18T23:19:00.450Z,99.90
2018-05-18T23:21:28.027Z,99.90
2018-05-18T23:23:55.555Z,99.90
2018-05-18T23:26:23.857Z,99.90
2018-05-18T23:28:51.375Z,99.90
2018-05-18T23:31:18.980Z,99.90
2018-05-18T23:33:46.539Z,99.90
2018-05-18T23:36:14.091Z,99.90
2018-05-18T23:38:41.602Z,99.90
2018-05-18T23:41:09.201Z,99.90
2018-05-18T23:43:37.499Z,99.90
2018-05-18T23:46:05.007Z,99.90
2018-05-18T23:48:32.520Z,99.90
2018-05-18T23:51:00.054Z,99.90
2018-05-18T23:53:28.337Z,99.90
2018-05-18T23:55:55.846Z,99.90
2018-05-18T23:58:23.370Z,99.90
